createdAt,value
2023-02-11T00:00:59.519Z,23.33
2023-02-11T00:03:26.528Z,22.83
2023-02-11T00:06:05.204Z,22.77
2023-02-11T00:08:32.156Z,20.75
2023-02-11T00:10:59.018Z,24.90
2023-02-11T00:13:26.291Z,21.85
2023-02-11T00:15:54.152Z,24.02
2023-02-11T00:18:21.242Z,23.42
2023-02-11T00:20:48.250Z,20.23
2023-02-11T00:23:15.116Z,22.38
2023-02-11T00:25:43.219Z,26.42
2023-02-11T00:28:10.793Z,26.15
2023-02-11T00:30:37.847Z,23.42
2023-02-11T00:33:04.855Z,17.92
2023-02-11T00:35:31.755Z,17.33
2023-02-11T00:37:58.619Z,32.60
2023-02-11T00:40:25.742Z,21.92
2023-02-11T00:42:52.612Z,32.80
2023-02-11T00:45:21.289Z,16.45
2023-02-11T00:47:48.426Z,21.45
2023-02-11T00:50:15.728Z,18.80
2023-02-11T00:52:42.625Z,23.90
2023-02-11T00:55:09.461Z,19.05
2023-02-11T00:57:36.742Z,18.73
2023-02-11T01:00:05.626Z,17.75
2023-02-11T01:02:32.441Z,23.20
2023-02-11T01:05:00.184Z,19.02
2023-02-11T01:07:28.400Z,20.00
2023-02-11T01:09:55.243Z,26.85
2023-02-11T01:12:22.657Z,24.33
2023-02-11T01:14:49.645Z,14.55
2023-02-11T01:17:16.616Z,22.52
2023-02-11T01:19:43.456Z,21.65
2023-02-11T01:22:10.379Z,29.52
2023-02-11T01:24:37.228Z,24.63
2023-02-11T01:27:04.371Z,22.95
2023-02-11T01:29:31.211Z,19.90
2023-02-11T01:31:58.091Z,23.65
2023-02-11T01:34:24.948Z,19.58
2023-02-11T01:36:56.247Z,20.90
2023-02-11T01:39:23.042Z,23.58
2023-02-11T01:41:50.130Z,26.05
2023-02-11T01:44:27.938Z,16.10
2023-02-11T01:46:55.404Z,17.73
2023-02-11T01:49:27.235Z,16.52
2023-02-11T01:52:01.255Z,20.23
2023-02-11T01:54:51.657Z,24.90
2023-02-11T01:57:22.604Z,23.70
2023-02-11T02:00:01.590Z,19.58
2023-02-11T02:03:01.559Z,20.65
2023-02-11T02:05:37.253Z,16.77
2023-02-11T02:08:29.499Z,21.55
2023-02-11T02:10:58.516Z,20.95
2023-02-11T02:13:25.935Z,18.65
2023-02-11T02:16:08.499Z,19.30
2023-02-11T02:18:48.964Z,20.63
2023-02-11T02:21:37.515Z,20.23
2023-02-11T02:24:22.748Z,25.15
2023-02-11T02:27:11.048Z,18.63
2023-02-11T02:30:11.622Z,19.48
2023-02-11T02:32:53.683Z,20.38
2023-02-11T02:35:29.810Z,30.08
2023-02-11T02:41:01.633Z,22.10
2023-02-11T02:43:30.348Z,21.80
2023-02-11T02:46:17.030Z,25.77
2023-02-11T02:48:45.069Z,26.15
2023-02-11T02:51:20.585Z,23.38
2023-02-11T02:54:09.440Z,20.95
2023-02-11T02:56:38.983Z,25.20
2023-02-11T02:59:05.814Z,25.77
2023-02-11T03:01:54.503Z,26.63
2023-02-11T03:04:29.821Z,28.33
2023-02-11T03:06:56.670Z,26.17
2023-02-11T03:09:58.738Z,23.10
2023-02-11T03:12:28.948Z,21.20
2023-02-11T03:14:55.899Z,27.45
2023-02-11T03:17:25.051Z,20.85
2023-02-11T03:19:52.275Z,23.67
2023-02-11T03:22:34.988Z,21.40
2023-02-11T03:25:03.126Z,22.20
2023-02-11T03:27:49.843Z,25.00
2023-02-11T03:30:33.056Z,23.63
2023-02-11T03:33:07.155Z,29.98
2023-02-11T03:35:41.990Z,31.58
2023-02-11T03:38:23.594Z,26.25
2023-02-11T03:40:51.440Z,24.50
2023-02-11T03:43:23.130Z,21.98
2023-02-11T03:45:53.176Z,25.98
2023-02-11T03:48:36.303Z,27.65
2023-02-11T03:51:07.518Z,25.80
2023-02-11T03:53:35.079Z,21.98
2023-02-11T03:56:05.910Z,25.00
2023-02-11T03:58:32.774Z,24.73
2023-02-11T04:00:59.677Z,27.30
2023-02-11T04:03:26.596Z,29.50
2023-02-11T04:05:54.232Z,24.88
2023-02-11T04:08:21.319Z,27.00
2023-02-11T04:10:48.096Z,25.45
2023-02-11T04:13:15.292Z,31.05
2023-02-11T04:15:42.315Z,29.60
2023-02-11T04:18:09.139Z,27.05
2023-02-11T04:20:36.190Z,26.60
2023-02-11T04:23:03.178Z,27.20
2023-02-11T04:25:30.154Z,33.33
2023-02-11T04:27:57.141Z,27.00
2023-02-11T04:30:24.161Z,25.20
2023-02-11T04:32:51.006Z,28.45
2023-02-11T04:35:18.031Z,27.02
2023-02-11T04:37:44.798Z,26.38
2023-02-11T04:40:12.489Z,26.73
2023-02-11T04:42:39.322Z,27.67
2023-02-11T04:45:07.856Z,24.83
2023-02-11T04:47:34.887Z,23.70
2023-02-11T04:50:01.771Z,31.42
2023-02-11T04:52:28.581Z,21.50
2023-02-11T04:54:56.609Z,25.42
2023-02-11T04:57:23.599Z,27.77
2023-02-11T04:59:50.370Z,27.60
2023-02-11T05:02:17.151Z,31.58
2023-02-11T05:04:45.535Z,27.33
2023-02-11T05:07:12.430Z,33.85
2023-02-11T05:09:39.284Z,31.20
2023-02-11T05:12:06.339Z,29.60
2023-02-11T05:14:33.442Z,24.63
2023-02-11T05:17:00.347Z,28.92
2023-02-11T05:19:27.995Z,33.60
2023-02-11T05:22:02.556Z,34.42
2023-02-11T05:24:34.782Z,26.80
2023-02-11T05:27:02.222Z,30.13
2023-02-11T05:29:29.122Z,34.63
2023-02-11T05:31:56.051Z,33.45
2023-02-11T05:34:22.864Z,37.33
2023-02-11T05:36:49.697Z,27.83
2023-02-11T05:39:16.550Z,26.63
2023-02-11T05:41:44.966Z,36.25
2023-02-11T05:44:11.758Z,33.40
2023-02-11T05:46:38.751Z,41.17
2023-02-11T05:49:05.704Z,35.38
2023-02-11T05:51:32.588Z,34.17
2023-02-11T05:53:59.471Z,35.72
2023-02-11T05:56:26.517Z,30.08
2023-02-11T05:58:53.350Z,38.47
2023-02-11T06:01:20.286Z,37.75
2023-02-11T06:03:50.047Z,28.70
2023-02-11T06:06:17.587Z,37.08
2023-02-11T06:08:44.514Z,41.45
2023-02-11T06:11:11.408Z,39.80
2023-02-11T06:13:38.289Z,36.75
2023-02-11T06:16:05.628Z,37.30
2023-02-11T06:18:33.669Z,35.63
2023-02-11T06:21:00.882Z,37.67
2023-02-11T06:23:30.257Z,39.95
2023-02-11T06:26:02.168Z,37.13
2023-02-11T06:28:31.332Z,38.65
2023-02-11T06:30:59.235Z,43.92
2023-02-11T06:33:26.052Z,39.28
2023-02-11T06:35:53.123Z,45.65
2023-02-11T06:38:20.069Z,41.35
2023-02-11T06:40:50.285Z,43.97
2023-02-11T06:43:17.410Z,42.92
2023-02-11T06:45:44.630Z,49.83
2023-02-11T06:48:11.519Z,48.10
2023-02-11T06:50:38.606Z,45.88
2023-02-11T06:53:05.444Z,48.17
2023-02-11T06:55:34.702Z,46.72
2023-02-11T06:58:01.593Z,45.83
2023-02-11T07:00:29.698Z,46.63
2023-02-11T07:02:57.152Z,46.00
2023-02-11T07:05:24.316Z,40.72
2023-02-11T07:07:51.146Z,40.35
2023-02-11T07:10:18.007Z,53.65
2023-02-11T07:12:44.969Z,44.88
2023-02-11T07:15:11.797Z,48.95
2023-02-11T07:17:38.639Z,47.05
2023-02-11T07:20:05.889Z,48.58
2023-02-11T07:22:34.992Z,46.13
2023-02-11T07:25:01.838Z,52.95
2023-02-11T07:27:28.656Z,50.88
2023-02-11T07:29:55.518Z,48.70
2023-02-11T07:32:22.391Z,47.75
2023-02-11T07:34:49.681Z,44.88
2023-02-11T07:37:16.536Z,47.53
2023-02-11T07:39:43.403Z,43.63
2023-02-11T07:42:10.394Z,43.80
2023-02-11T07:44:37.285Z,53.95
2023-02-11T07:47:04.350Z,45.03
2023-02-11T07:49:31.275Z,50.35
2023-02-11T07:51:58.129Z,49.67
2023-02-11T07:54:24.971Z,50.58
2023-02-11T07:56:53.040Z,55.40
2023-02-11T07:59:19.988Z,49.80
2023-02-11T08:01:46.927Z,48.15
2023-02-11T08:04:13.982Z,58.00
2023-02-11T08:06:42.688Z,56.30
2023-02-11T08:09:13.597Z,59.00
2023-02-11T08:11:41.672Z,63.65
2023-02-11T08:14:09.188Z,77.60
2023-02-11T08:16:38.807Z,70.15
2023-02-11T08:19:10.432Z,102.82
2023-02-11T08:21:37.476Z,71.25
2023-02-11T08:24:04.502Z,72.45
2023-02-11T08:26:34.850Z,100.75
2023-02-11T08:29:05.396Z,92.72
2023-02-11T08:31:37.532Z,88.07
2023-02-11T08:34:04.670Z,79.47
2023-02-11T08:36:34.266Z,111.15
2023-02-11T08:39:18.210Z,158.45
2023-02-11T08:41:48.887Z,162.20
2023-02-11T08:44:16.543Z,98.95
2023-02-11T08:46:43.466Z,76.75
2023-02-11T08:49:10.444Z,69.45
2023-02-11T08:51:37.547Z,69.80
2023-02-11T08:54:04.523Z,70.93
2023-02-11T08:56:33.630Z,77.03
2023-02-11T08:59:00.634Z,76.82
2023-02-11T09:01:30.082Z,66.32
2023-02-11T09:03:58.113Z,78.30
2023-02-11T09:06:26.392Z,74.90
2023-02-11T09:08:55.690Z,72.65
2023-02-11T09:11:30.236Z,78.28
2023-02-11T09:13:57.260Z,75.57
2023-02-11T09:16:27.289Z,72.28
2023-02-11T09:18:56.163Z,84.05
2023-02-11T09:21:23.014Z,76.95
2023-02-11T09:23:49.932Z,79.75
2023-02-11T09:26:31.990Z,78.65
2023-02-11T09:28:59.628Z,78.55
2023-02-11T09:31:28.988Z,76.78
2023-02-11T09:33:58.520Z,81.07
2023-02-11T09:36:29.560Z,70.95
2023-02-11T09:38:59.390Z,70.38
2023-02-11T09:41:55.418Z,73.72
2023-02-11T09:44:32.578Z,76.28
2023-02-11T09:47:03.018Z,75.60
2023-02-11T09:49:51.590Z,69.10
2023-02-11T09:52:38.312Z,70.82
2023-02-11T09:55:29.341Z,77.18
2023-02-11T09:57:57.764Z,74.95
2023-02-11T10:00:32.496Z,80.75
2023-02-11T10:03:08.369Z,79.50
2023-02-11T10:05:50.226Z,74.72
2023-02-11T10:08:25.889Z,67.63
2023-02-11T10:10:54.210Z,76.72
2023-02-11T10:13:42.769Z,71.55
2023-02-11T10:16:37.557Z,75.82
2023-02-11T10:19:34.469Z,72.40
2023-02-11T10:22:11.746Z,67.70
2023-02-11T10:24:41.476Z,72.90
2023-02-11T10:27:30.838Z,63.50
2023-02-11T10:30:10.149Z,66.85
2023-02-11T10:32:53.507Z,71.18
2023-02-11T10:35:22.800Z,73.53
2023-02-11T10:37:49.828Z,78.25
2023-02-11T10:40:29.138Z,69.68
2023-02-11T10:42:59.724Z,67.50
2023-02-11T10:45:39.472Z,68.90
2023-02-11T10:48:38.586Z,68.80
2023-02-11T10:51:14.799Z,67.57
2023-02-11T10:53:42.115Z,64.00
2023-02-11T10:56:12.749Z,69.13
2023-02-11T10:58:54.898Z,64.13
2023-02-11T11:01:24.730Z,64.95
2023-02-11T11:03:53.098Z,67.97
2023-02-11T11:06:33.705Z,67.63
2023-02-11T11:09:01.145Z,59.75
2023-02-11T11:11:28.029Z,57.50
2023-02-11T11:13:56.207Z,59.90
2023-02-11T11:16:24.736Z,66.15
2023-02-11T11:18:54.404Z,66.55
2023-02-11T11:21:35.685Z,66.47
2023-02-11T11:24:03.976Z,63.22
2023-02-11T11:26:46.771Z,65.88
2023-02-11T11:29:18.572Z,61.17
2023-02-11T11:32:01.349Z,70.35
2023-02-11T11:34:41.951Z,72.70
2023-02-11T11:37:20.110Z,68.88
2023-02-11T11:40:13.304Z,66.43
2023-02-11T11:42:40.485Z,64.97
2023-02-11T11:45:17.648Z,68.20
2023-02-11T11:47:56.575Z,69.47
2023-02-11T11:50:45.972Z,68.25
2023-02-11T11:53:21.085Z,65.43
2023-02-11T11:56:09.853Z,69.95
2023-02-11T11:58:36.894Z,67.95
2023-02-11T12:01:03.628Z,67.93
2023-02-11T12:04:07.570Z,67.70
2023-02-11T12:07:00.677Z,71.40
2023-02-11T12:09:35.686Z,66.47
2023-02-11T12:12:27.057Z,67.13
2023-02-11T12:15:12.035Z,69.22
2023-02-11T12:18:11.228Z,62.80
2023-02-11T12:21:08.848Z,65.97
2023-02-11T12:24:07.362Z,66.82
2023-02-11T12:26:53.261Z,62.65
2023-02-11T12:31:52.491Z,62.60
2023-02-11T12:34:43.871Z,70.05
2023-02-11T12:37:16.579Z,76.05
2023-02-11T12:39:50.593Z,63.67
2023-02-11T12:42:41.947Z,66.75
2023-02-11T12:45:08.838Z,62.45
2023-02-11T12:47:44.634Z,69.72
2023-02-11T12:50:39.018Z,68.38
2023-02-11T12:53:37.983Z,66.18
2023-02-11T12:56:45.382Z,64.55
2023-02-11T12:59:25.868Z,74.60
2023-02-11T13:01:53.752Z,70.18
2023-02-11T13:04:30.213Z,64.28
2023-02-11T13:07:02.490Z,61.47
2023-02-11T13:09:36.032Z,59.35
2023-02-11T13:12:27.146Z,62.40
2023-02-11T13:14:59.044Z,63.65
2023-02-11T13:17:50.528Z,62.55
2023-02-11T13:20:30.731Z,60.08
2023-02-11T13:23:21.540Z,59.97
2023-02-11T13:25:57.546Z,57.05
2023-02-11T13:28:46.704Z,56.90
2023-02-11T13:31:16.514Z,62.35
2023-02-11T13:33:44.392Z,58.85
2023-02-11T13:36:14.576Z,54.35
2023-02-11T13:38:51.030Z,54.10
2023-02-11T13:41:27.602Z,54.70
2023-02-11T13:43:58.380Z,54.53
2023-02-11T13:46:27.442Z,64.07
2023-02-11T13:48:54.784Z,56.72
2023-02-11T13:51:42.892Z,56.58
2023-02-11T13:54:27.572Z,54.55
2023-02-11T13:57:29.948Z,61.13
2023-02-11T14:00:03.230Z,57.08
2023-02-11T14:02:53.522Z,55.38
2023-02-11T14:05:48.134Z,53.83
2023-02-11T14:08:52.419Z,59.93
2023-02-11T14:11:35.238Z,67.35
2023-02-11T14:14:33.499Z,61.22
2023-02-11T14:17:00.941Z,61.97
2023-02-11T14:19:34.777Z,59.47
2023-02-11T14:22:18.893Z,60.28
2023-02-11T14:25:00.990Z,66.78
2023-02-11T14:27:27.804Z,66.70
2023-02-11T14:30:43.665Z,63.47
2023-02-11T14:33:23.399Z,62.15
2023-02-11T14:36:39.667Z,63.42
2023-02-11T14:39:27.657Z,62.88
2023-02-11T14:41:54.779Z,61.97
2023-02-11T14:44:30.242Z,61.08
2023-02-11T14:46:58.093Z,60.47
2023-02-11T14:49:34.827Z,61.55
2023-02-11T14:52:43.602Z,59.63
2023-02-11T14:55:33.192Z,62.75
2023-02-11T14:58:32.581Z,65.18
2023-02-11T15:01:09.325Z,67.40
2023-02-11T15:03:41.496Z,62.45
2023-02-11T15:06:18.843Z,68.82
2023-02-11T15:08:55.212Z,63.45
2023-02-11T15:11:25.235Z,64.18
2023-02-11T15:13:55.092Z,64.88
2023-02-11T15:16:28.639Z,61.50
2023-02-11T15:19:01.393Z,63.45
2023-02-11T15:21:31.041Z,63.58
2023-02-11T15:24:00.335Z,64.15
2023-02-11T15:26:27.731Z,62.00
2023-02-11T15:28:56.215Z,66.60
2023-02-11T15:31:26.430Z,61.22
2023-02-11T15:33:54.492Z,58.35
2023-02-11T15:36:28.691Z,63.70
2023-02-11T15:39:41.223Z,62.72
2023-02-11T15:42:19.809Z,60.78
2023-02-11T15:44:52.305Z,58.45
2023-02-11T15:47:23.317Z,60.90
2023-02-11T15:49:50.305Z,55.55
2023-02-11T15:52:25.208Z,55.28
2023-02-11T15:54:54.039Z,60.17
2023-02-11T15:57:22.110Z,60.50
2023-02-11T15:59:52.815Z,56.15
2023-02-11T16:02:32.619Z,51.90
2023-02-11T16:05:08.784Z,53.78
2023-02-11T16:10:16.214Z,51.92
2023-02-11T16:12:55.293Z,55.53
2023-02-11T16:15:35.099Z,50.40
2023-02-11T16:18:04.029Z,49.72
2023-02-11T16:20:31.149Z,47.70
2023-02-11T16:22:58.229Z,54.22
2023-02-11T16:25:25.155Z,50.40
2023-02-11T16:27:53.276Z,56.83
2023-02-11T16:30:34.782Z,54.08
2023-02-11T16:33:01.736Z,49.30
2023-02-11T16:35:28.531Z,52.22
2023-02-11T16:37:55.556Z,55.50
2023-02-11T16:40:23.610Z,56.08
2023-02-11T16:42:52.500Z,56.72
2023-02-11T16:45:19.621Z,61.75
2023-02-11T16:47:46.611Z,61.85
2023-02-11T16:50:22.546Z,54.95
2023-02-11T16:52:49.706Z,54.22
2023-02-11T16:55:16.545Z,56.08
2023-02-11T16:57:43.402Z,49.85
2023-02-11T17:00:15.568Z,52.05
2023-02-11T17:02:42.726Z,57.03
2023-02-11T17:05:18.943Z,55.22
2023-02-11T17:07:46.104Z,54.03
2023-02-11T17:10:22.081Z,53.67
2023-02-11T17:12:50.189Z,56.00
2023-02-11T17:15:17.239Z,60.80
2023-02-11T17:17:44.543Z,58.97
2023-02-11T17:20:12.798Z,58.65
2023-02-11T17:22:39.925Z,57.38
2023-02-11T17:25:06.865Z,62.40
2023-02-11T17:27:34.402Z,57.85
2023-02-11T17:30:01.240Z,58.80
2023-02-11T17:32:28.233Z,55.85
2023-02-11T17:34:55.277Z,56.38
2023-02-11T17:37:22.476Z,57.55
2023-02-11T17:39:51.045Z,59.97
2023-02-11T17:42:19.292Z,59.95
2023-02-11T17:44:46.679Z,64.43
2023-02-11T17:47:13.898Z,63.08
2023-02-11T17:49:41.079Z,61.10
2023-02-11T17:52:08.523Z,63.58
2023-02-11T17:54:35.646Z,62.70
2023-02-11T17:57:02.537Z,66.57
2023-02-11T17:59:35.383Z,67.95
2023-02-11T18:02:06.386Z,61.78
2023-02-11T18:04:33.674Z,56.33
2023-02-11T18:07:00.466Z,56.80
2023-02-11T18:09:27.367Z,57.90
2023-02-11T18:11:54.306Z,54.58
2023-02-11T18:14:22.376Z,53.33
2023-02-11T18:16:53.177Z,47.28
2023-02-11T18:19:20.755Z,49.78
2023-02-11T18:21:50.317Z,49.55
2023-02-11T18:24:17.687Z,49.33
2023-02-11T18:26:44.582Z,50.78
2023-02-11T18:29:11.530Z,49.75
2023-02-11T18:31:39.549Z,50.22
2023-02-11T18:34:07.880Z,51.83
2023-02-11T18:36:35.266Z,47.67
2023-02-11T18:39:02.790Z,49.13
2023-02-11T18:41:29.807Z,47.80
2023-02-11T18:43:58.629Z,48.63
2023-02-11T18:46:25.765Z,51.65
2023-02-11T18:48:55.947Z,49.63
2023-02-11T18:51:23.398Z,46.40
2023-02-11T18:53:50.462Z,48.63
2023-02-11T18:56:21.811Z,46.30
2023-02-11T18:58:51.407Z,48.95
2023-02-11T19:01:21.224Z,57.70
2023-02-11T19:03:48.340Z,49.30
2023-02-11T19:06:26.914Z,50.35
2023-02-11T19:08:57.573Z,52.75
2023-02-11T19:11:45.073Z,53.65
2023-02-11T19:16:43.468Z,50.15
2023-02-11T19:19:10.541Z,56.78
2023-02-11T19:21:37.377Z,49.30
2023-02-11T19:24:08.424Z,52.92
2023-02-11T19:26:36.699Z,53.08
2023-02-11T19:29:06.068Z,45.78
2023-02-11T19:31:33.485Z,55.75
2023-02-11T19:34:01.677Z,47.58
2023-02-11T19:36:29.296Z,49.00
2023-02-11T19:38:56.232Z,47.85
2023-02-11T19:41:23.367Z,50.85
2023-02-11T19:43:53.817Z,55.20
2023-02-11T19:46:22.060Z,52.22
2023-02-11T19:48:49.556Z,50.28
2023-02-11T19:51:17.521Z,49.05
2023-02-11T19:53:45.894Z,53.30
2023-02-11T19:56:13.970Z,46.97
2023-02-11T19:58:41.832Z,51.33
2023-02-11T20:01:29.134Z,53.97
2023-02-11T20:03:57.703Z,51.33
2023-02-11T20:06:28.180Z,52.47
2023-02-11T20:09:00.969Z,49.22
2023-02-11T20:11:32.855Z,53.15
2023-02-11T20:14:00.362Z,59.28
2023-02-11T20:16:45.116Z,48.38
2023-02-11T20:19:19.518Z,53.53
2023-02-11T20:21:48.499Z,56.45
2023-02-11T20:24:17.653Z,48.30
2023-02-11T20:26:46.939Z,51.42
2023-02-11T20:29:15.431Z,51.97
2023-02-11T20:31:42.917Z,52.38
2023-02-11T20:34:11.142Z,51.80
2023-02-11T20:36:39.280Z,55.97
2023-02-11T20:39:07.023Z,51.60
2023-02-11T20:41:36.176Z,51.30
2023-02-11T20:44:07.119Z,50.03
2023-02-11T20:46:36.876Z,48.00
2023-02-11T20:49:03.751Z,47.30
2023-02-11T20:51:32.886Z,51.10
2023-02-11T20:54:00.866Z,50.55
2023-02-11T20:56:30.477Z,51.10
2023-02-11T20:58:58.741Z,48.75
2023-02-11T21:01:32.009Z,48.15
2023-02-11T21:04:05.324Z,45.60
2023-02-11T21:06:37.753Z,52.22
2023-02-11T21:09:06.791Z,48.20
2023-02-11T21:11:34.311Z,51.35
2023-02-11T21:14:02.389Z,49.35
2023-02-11T21:16:29.727Z,48.60
2023-02-11T21:18:56.938Z,49.03
2023-02-11T21:21:24.421Z,47.75
2023-02-11T21:23:51.232Z,41.83
2023-02-11T21:26:18.397Z,37.92
2023-02-11T21:28:45.338Z,42.88
2023-02-11T21:31:42.006Z,39.88
2023-02-11T21:34:09.935Z,40.15
2023-02-11T21:36:36.805Z,38.55
2023-02-11T21:39:04.245Z,39.55
2023-02-11T21:41:31.161Z,37.80
2023-02-11T21:43:58.495Z,36.25
2023-02-11T21:46:25.558Z,36.20
2023-02-11T21:48:52.770Z,37.95
2023-02-11T21:51:22.459Z,41.17
2023-02-11T21:53:56.459Z,37.50
2023-02-11T21:56:26.386Z,35.83
2023-02-11T21:58:54.577Z,38.72
2023-02-11T22:01:30.840Z,34.58
2023-02-11T22:03:58.581Z,37.03
2023-02-11T22:06:30.841Z,47.17
2023-02-11T22:08:58.669Z,44.42
2023-02-11T22:11:25.563Z,47.13
2023-02-11T22:13:56.359Z,53.80
2023-02-11T22:16:24.477Z,57.13
2023-02-11T22:18:52.021Z,49.53
2023-02-11T22:21:21.691Z,39.97
2023-02-11T22:23:49.292Z,49.78
2023-02-11T22:26:19.433Z,38.05
2023-02-11T22:28:47.585Z,42.40
2023-02-11T22:31:19.671Z,39.58
2023-02-11T22:33:47.120Z,39.42
2023-02-11T22:36:22.752Z,39.05
2023-02-11T22:38:50.381Z,39.50
2023-02-11T22:41:18.100Z,43.03
2023-02-11T22:43:45.710Z,54.92
2023-02-11T22:46:16.407Z,58.38
2023-02-11T22:48:43.446Z,49.75
2023-02-11T22:51:13.618Z,51.13
2023-02-11T22:53:40.603Z,47.70
2023-02-11T22:56:09.622Z,31.15
2023-02-11T22:58:36.810Z,42.13
2023-02-11T23:01:05.535Z,44.15
2023-02-11T23:03:33.224Z,40.42
2023-02-11T23:06:00.734Z,40.25
2023-02-11T23:08:28.197Z,39.20
2023-02-11T23:10:55.334Z,32.38
2023-02-11T23:13:22.404Z,31.90
2023-02-11T23:15:49.229Z,33.00
2023-02-11T23:18:16.025Z,35.13
2023-02-11T23:20:44.040Z,32.35
2023-02-11T23:23:11.496Z,33.03
2023-02-11T23:25:43.756Z,30.38
2023-02-11T23:28:11.294Z,31.05
2023-02-11T23:30:38.611Z,33.25
2023-02-11T23:33:05.520Z,29.90
2023-02-11T23:35:32.814Z,42.22
2023-02-11T23:37:59.723Z,43.13
2023-02-11T23:40:26.564Z,37.28
2023-02-11T23:42:53.481Z,38.70
2023-02-11T23:45:20.468Z,35.20
2023-02-11T23:47:47.717Z,34.65
2023-02-11T23:50:15.149Z,45.22
2023-02-11T23:52:42.250Z,33.63
2023-02-11T23:55:09.890Z,33.38
2023-02-11T23:57:37.418Z,34.53
